sensor_id;sensor_type;location;lat;lon;timestamp;P1;durP1;ratioP1;P2;durP2;ratioP2
49548;SDS011;35450;44.518;7.466;2022-07-18T05:47:27;9.55;;;5.85;;
49548;SDS011;35450;44.518;7.466;2022-07-18T05:50:31;7.38;;;5.95;;
49548;SDS011;35450;44.518;7.466;2022-07-18T05:53:35;15.50;;;7.18;;
49548;SDS011;35450;44.518;7.466;2022-07-18T05:56:39;12.45;;;6.43;;
49548;SDS011;35450;44.518;7.466;2022-07-18T05:59:43;17.42;;;6.32;;
49548;SDS011;35450;44.518;7.466;2022-07-18T06:02:48;10.32;;;5.75;;
49548;SDS011;35450;44.518;7.466;2022-07-18T06:05:54;9.02;;;6.40;;
49548;SDS011;35450;44.518;7.466;2022-07-18T06:08:58;17.67;;;6.80;;
49548;SDS011;35450;44.518;7.466;2022-07-18T06:12:02;10.18;;;5.88;;
49548;SDS011;35450;44.518;7.466;2022-07-18T06:15:07;9.52;;;5.50;;
49548;SDS011;35450;44.518;7.466;2022-07-18T06:18:11;10.43;;;5.35;;
49548;SDS011;35450;44.518;7.466;2022-07-18T06:21:15;11.13;;;6.63;;
49548;SDS011;35450;44.518;7.466;2022-07-18T06:24:19;7.53;;;5.68;;
49548;SDS011;35450;44.518;7.466;2022-07-18T06:27:23;11.15;;;5.47;;
49548;SDS011;35450;44.518;7.466;2022-07-18T06:30:27;15.98;;;5.88;;
49548;SDS011;35450;44.518;7.466;2022-07-18T06:33:31;9.55;;;5.78;;
49548;SDS011;35450;44.518;7.466;2022-07-18T06:36:35;10.25;;;5.20;;
49548;SDS011;35450;44.518;7.466;2022-07-18T06:39:39;8.40;;;4.95;;
49548;SDS011;35450;44.518;7.466;2022-07-18T06:42:43;10.98;;;4.82;;
49548;SDS011;35450;44.518;7.466;2022-07-18T06:45:47;8.73;;;4.63;;
49548;SDS011;35450;44.518;7.466;2022-07-18T06:48:52;8.07;;;4.53;;
49548;SDS011;35450;44.518;7.466;2022-07-18T06:51:57;7.68;;;4.45;;
49548;SDS011;35450;44.518;7.466;2022-07-18T06:55:01;8.93;;;4.30;;
49548;SDS011;35450;44.518;7.466;2022-07-18T06:58:05;9.38;;;5.20;;
49548;SDS011;35450;44.518;7.466;2022-07-18T07:01:09;6.53;;;4.20;;
49548;SDS011;35450;44.518;7.466;2022-07-18T07:04:14;4.80;;;3.95;;
49548;SDS011;35450;44.518;7.466;2022-07-18T07:07:18;12.55;;;4.70;;
49548;SDS011;35450;44.518;7.466;2022-07-18T07:10:22;11.25;;;5.20;;
49548;SDS011;35450;44.518;7.466;2022-07-18T07:13:26;13.13;;;5.45;;
49548;SDS011;35450;44.518;7.466;2022-07-18T07:16:30;6.30;;;4.93;;
49548;SDS011;35450;44.518;7.466;2022-07-18T07:19:34;7.38;;;4.40;;
49548;SDS011;35450;44.518;7.466;2022-07-18T07:22:45;15.50;;;5.28;;
49548;SDS011;35450;44.518;7.466;2022-07-18T07:25:52;7.28;;;4.07;;
49548;SDS011;35450;44.518;7.466;2022-07-18T07:28:58;11.82;;;4.32;;
49548;SDS011;35450;44.518;7.466;2022-07-18T07:32:02;5.78;;;3.22;;
49548;SDS011;35450;44.518;7.466;2022-07-18T07:35:06;14.73;;;4.43;;
49548;SDS011;35450;44.518;7.466;2022-07-18T07:38:14;9.55;;;4.47;;
49548;SDS011;35450;44.518;7.466;2022-07-18T07:41:22;8.65;;;4.13;;
49548;SDS011;35450;44.518;7.466;2022-07-18T07:44:26;11.55;;;4.10;;
49548;SDS011;35450;44.518;7.466;2022-07-18T07:47:30;10.85;;;4.38;;
49548;SDS011;35450;44.518;7.466;2022-07-18T07:50:35;5.38;;;4.20;;
49548;SDS011;35450;44.518;7.466;2022-07-18T07:53:40;7.63;;;3.75;;
49548;SDS011;35450;44.518;7.466;2022-07-18T07:56:44;6.95;;;4.13;;
49548;SDS011;35450;44.518;7.466;2022-07-18T07:59:48;10.43;;;4.47;;
49548;SDS011;35450;44.518;7.466;2022-07-18T08:03:00;9.73;;;4.80;;
49548;SDS011;35450;44.518;7.466;2022-07-18T08:06:05;8.13;;;4.18;;
49548;SDS011;35450;44.518;7.466;2022-07-18T08:09:09;8.23;;;3.70;;
49548;SDS011;35450;44.518;7.466;2022-07-18T08:12:13;7.22;;;4.90;;
49548;SDS011;35450;44.518;7.466;2022-07-18T08:15:18;18.60;;;4.78;;
49548;SDS011;35450;44.518;7.466;2022-07-18T08:18:22;12.45;;;4.20;;
49548;SDS011;35450;44.518;7.466;2022-07-18T08:21:26;12.25;;;4.57;;
49548;SDS011;35450;44.518;7.466;2022-07-18T08:24:30;8.27;;;4.28;;
49548;SDS011;35450;44.518;7.466;2022-07-18T08:27:34;10.18;;;4.53;;
49548;SDS011;35450;44.518;7.466;2022-07-18T08:30:38;8.77;;;4.10;;
49548;SDS011;35450;44.518;7.466;2022-07-18T08:33:42;15.20;;;4.85;;
49548;SDS011;35450;44.518;7.466;2022-07-18T08:36:46;8.93;;;4.97;;
49548;SDS011;35450;44.518;7.466;2022-07-18T08:39:50;6.25;;;4.55;;
49548;SDS011;35450;44.518;7.466;2022-07-18T08:42:55;9.88;;;4.65;;
49548;SDS011;35450;44.518;7.466;2022-07-18T08:46:05;16.50;;;4.47;;
49548;SDS011;35450;44.518;7.466;2022-07-18T08:49:10;8.30;;;4.15;;
49548;SDS011;35450;44.518;7.466;2022-07-18T08:52:16;11.30;;;3.90;;
49548;SDS011;35450;44.518;7.466;2022-07-18T08:55:21;10.98;;;4.80;;
49548;SDS011;35450;44.518;7.466;2022-07-18T08:58:27;9.00;;;4.72;;
49548;SDS011;35450;44.518;7.466;2022-07-18T09:01:31;7.63;;;4.30;;
49548;SDS011;35450;44.518;7.466;2022-07-18T09:04:36;11.45;;;5.03;;
49548;SDS011;35450;44.518;7.466;2022-07-18T09:07:42;9.88;;;4.00;;
49548;SDS011;35450;44.518;7.466;2022-07-18T09:10:56;11.27;;;4.00;;
49548;SDS011;35450;44.518;7.466;2022-07-18T09:14:01;13.88;;;5.22;;
49548;SDS011;35450;44.518;7.466;2022-07-18T09:20:29;9.05;;;4.18;;
49548;SDS011;35450;44.518;7.466;2022-07-18T09:23:34;5.07;;;3.30;;
49548;SDS011;35450;44.518;7.466;2022-07-18T09:26:42;6.35;;;3.10;;
49548;SDS011;35450;44.518;7.466;2022-07-18T09:29:47;11.00;;;3.58;;
49548;SDS011;35450;44.518;7.466;2022-07-18T09:32:55;9.80;;;4.00;;
49548;SDS011;35450;44.518;7.466;2022-07-18T09:36:13;10.75;;;3.50;;
49548;SDS011;35450;44.518;7.466;2022-07-18T09:39:18;7.65;;;3.40;;
49548;SDS011;35450;44.518;7.466;2022-07-18T09:42:22;5.03;;;3.40;;
49548;SDS011;35450;44.518;7.466;2022-07-18T09:45:28;8.73;;;2.95;;
49548;SDS011;35450;44.518;7.466;2022-07-18T09:48:36;7.78;;;3.60;;
49548;SDS011;35450;44.518;7.466;2022-07-18T09:51:59;9.25;;;3.83;;
49548;SDS011;35450;44.518;7.466;2022-07-18T09:55:08;10.93;;;3.47;;
49548;SDS011;35450;44.518;7.466;2022-07-18T09:58:14;7.10;;;3.53;;
49548;SDS011;35450;44.518;7.466;2022-07-18T10:01:21;6.45;;;3.60;;
49548;SDS011;35450;44.518;7.466;2022-07-18T10:04:26;10.40;;;3.80;;
49548;SDS011;35450;44.518;7.466;2022-07-18T10:07:31;7.65;;;3.65;;
49548;SDS011;35450;44.518;7.466;2022-07-18T10:10:36;16.40;;;4.00;;
49548;SDS011;35450;44.518;7.466;2022-07-18T10:13:41;10.90;;;3.70;;
49548;SDS011;35450;44.518;7.466;2022-07-18T10:16:45;7.15;;;4.03;;
49548;SDS011;35450;44.518;7.466;2022-07-18T10:19:49;10.95;;;4.20;;
49548;SDS011;35450;44.518;7.466;2022-07-18T10:22:56;9.95;;;3.75;;
49548;SDS011;35450;44.518;7.466;2022-07-18T10:29:22;10.02;;;3.40;;
49548;SDS011;35450;44.518;7.466;2022-07-18T10:32:36;6.00;;;3.58;;
49548;SDS011;35450;44.518;7.466;2022-07-18T10:36:00;9.95;;;3.85;;
49548;SDS011;35450;44.518;7.466;2022-07-18T10:39:11;5.43;;;3.50;;
49548;SDS011;35450;44.518;7.466;2022-07-18T10:42:20;7.78;;;3.30;;
49548;SDS011;35450;44.518;7.466;2022-07-18T10:45:41;9.10;;;3.70;;
49548;SDS011;35450;44.518;7.466;2022-07-18T10:48:50;9.13;;;3.75;;
49548;SDS011;35450;44.518;7.466;2022-07-18T10:51:55;14.38;;;3.70;;
49548;SDS011;35450;44.518;7.466;2022-07-18T11:01:18;4.75;;;3.63;;
49548;SDS011;35450;44.518;7.466;2022-07-18T11:04:27;10.68;;;3.67;;
49548;SDS011;35450;44.518;7.466;2022-07-18T11:07:33;7.82;;;3.78;;
49548;SDS011;35450;44.518;7.466;2022-07-18T11:13:48;10.02;;;4.28;;
49548;SDS011;35450;44.518;7.466;2022-07-18T11:17:05;15.38;;;4.32;;
49548;SDS011;35450;44.518;7.466;2022-07-18T11:23:41;8.10;;;3.53;;
49548;SDS011;35450;44.518;7.466;2022-07-18T11:26:47;13.20;;;3.80;;
49548;SDS011;35450;44.518;7.466;2022-07-18T11:29:52;15.95;;;4.15;;
49548;SDS011;35450;44.518;7.466;2022-07-18T11:32:56;7.20;;;4.00;;
49548;SDS011;35450;44.518;7.466;2022-07-18T11:36:07;11.85;;;4.20;;
49548;SDS011;35450;44.518;7.466;2022-07-18T11:39:13;7.47;;;4.50;;
49548;SDS011;35450;44.518;7.466;2022-07-18T11:42:33;9.77;;;4.60;;
49548;SDS011;35450;44.518;7.466;2022-07-18T11:45:41;9.68;;;4.03;;
49548;SDS011;35450;44.518;7.466;2022-07-18T11:48:46;9.40;;;4.03;;
49548;SDS011;35450;44.518;7.466;2022-07-18T11:51:51;10.05;;;4.38;;
49548;SDS011;35450;44.518;7.466;2022-07-18T11:54:55;6.10;;;4.78;;
49548;SDS011;35450;44.518;7.466;2022-07-18T11:58:09;7.07;;;4.25;;
49548;SDS011;35450;44.518;7.466;2022-07-18T12:01:15;12.95;;;4.68;;
49548;SDS011;35450;44.518;7.466;2022-07-18T12:04:23;8.05;;;4.35;;
49548;SDS011;35450;44.518;7.466;2022-07-18T12:07:27;8.43;;;4.57;;
49548;SDS011;35450;44.518;7.466;2022-07-18T12:10:31;38.92;;;5.20;;
49548;SDS011;35450;44.518;7.466;2022-07-18T12:16:57;11.45;;;5.10;;
49548;SDS011;35450;44.518;7.466;2022-07-18T12:20:11;9.05;;;4.10;;
49548;SDS011;35450;44.518;7.466;2022-07-18T12:23:17;11.05;;;4.30;;
49548;SDS011;35450;44.518;7.466;2022-07-18T12:26:28;10.02;;;4.47;;
49548;SDS011;35450;44.518;7.466;2022-07-18T12:29:52;27.75;;;4.80;;
49548;SDS011;35450;44.518;7.466;2022-07-18T12:32:57;15.07;;;3.85;;
49548;SDS011;35450;44.518;7.466;2022-07-18T12:36:02;12.60;;;5.03;;
49548;SDS011;35450;44.518;7.466;2022-07-18T12:39:08;7.65;;;4.55;;
49548;SDS011;35450;44.518;7.466;2022-07-18T12:42:26;11.98;;;4.03;;
49548;SDS011;35450;44.518;7.466;2022-07-18T12:45:35;14.93;;;4.05;;
49548;SDS011;35450;44.518;7.466;2022-07-18T12:48:40;18.92;;;4.00;;
49548;SDS011;35450;44.518;7.466;2022-07-18T12:51:45;14.15;;;5.55;;
49548;SDS011;35450;44.518;7.466;2022-07-18T12:54:49;11.07;;;5.22;;
49548;SDS011;35450;44.518;7.466;2022-07-18T12:57:54;14.55;;;4.53;;
49548;SDS011;35450;44.518;7.466;2022-07-18T13:00:58;11.05;;;4.15;;
49548;SDS011;35450;44.518;7.466;2022-07-18T13:04:03;12.85;;;4.38;;
49548;SDS011;35450;44.518;7.466;2022-07-18T13:07:08;8.82;;;4.32;;
49548;SDS011;35450;44.518;7.466;2022-07-18T13:10:13;17.42;;;5.07;;
49548;SDS011;35450;44.518;7.466;2022-07-18T13:13:16;11.30;;;4.80;;
49548;SDS011;35450;44.518;7.466;2022-07-18T13:16:21;9.93;;;5.25;;
49548;SDS011;35450;44.518;7.466;2022-07-18T13:19:25;8.40;;;4.78;;
49548;SDS011;35450;44.518;7.466;2022-07-18T13:22:29;7.45;;;4.70;;
49548;SDS011;35450;44.518;7.466;2022-07-18T13:25:41;10.63;;;5.05;;
49548;SDS011;35450;44.518;7.466;2022-07-18T13:28:45;16.55;;;4.75;;
49548;SDS011;35450;44.518;7.466;2022-07-18T13:31:49;8.57;;;4.68;;
49548;SDS011;35450;44.518;7.466;2022-07-18T13:34:54;13.00;;;5.10;;
49548;SDS011;35450;44.518;7.466;2022-07-18T13:37:59;12.63;;;5.95;;
49548;SDS011;35450;44.518;7.466;2022-07-18T13:41:03;6.75;;;4.55;;
49548;SDS011;35450;44.518;7.466;2022-07-18T13:44:08;8.63;;;5.35;;
49548;SDS011;35450;44.518;7.466;2022-07-18T13:47:12;9.35;;;4.70;;
49548;SDS011;35450;44.518;7.466;2022-07-18T13:50:17;11.05;;;5.03;;
49548;SDS011;35450;44.518;7.466;2022-07-18T13:53:22;8.45;;;4.63;;
49548;SDS011;35450;44.518;7.466;2022-07-18T13:56:26;8.43;;;4.55;;
49548;SDS011;35450;44.518;7.466;2022-07-18T13:59:30;9.07;;;4.63;;
49548;SDS011;35450;44.518;7.466;2022-07-18T14:02:34;13.80;;;4.63;;
49548;SDS011;35450;44.518;7.466;2022-07-18T14:05:38;10.82;;;4.88;;
49548;SDS011;35450;44.518;7.466;2022-07-18T14:08:43;15.27;;;5.45;;
49548;SDS011;35450;44.518;7.466;2022-07-18T14:11:47;6.82;;;4.53;;
49548;SDS011;35450;44.518;7.466;2022-07-18T14:14:51;8.60;;;4.80;;
49548;SDS011;35450;44.518;7.466;2022-07-18T14:17:55;5.70;;;4.22;;
49548;SDS011;35450;44.518;7.466;2022-07-18T14:20:59;8.90;;;5.15;;
49548;SDS011;35450;44.518;7.466;2022-07-18T14:24:04;9.82;;;4.63;;
49548;SDS011;35450;44.518;7.466;2022-07-18T14:27:08;7.22;;;4.47;;
49548;SDS011;35450;44.518;7.466;2022-07-18T14:30:14;26.25;;;5.50;;
49548;SDS011;35450;44.518;7.466;2022-07-18T14:33:20;52.28;;;6.90;;
49548;SDS011;35450;44.518;7.466;2022-07-18T14:36:24;15.73;;;5.13;;
49548;SDS011;35450;44.518;7.466;2022-07-18T14:39:28;12.75;;;4.28;;
49548;SDS011;35450;44.518;7.466;2022-07-18T14:42:32;10.65;;;4.78;;
49548;SDS011;35450;44.518;7.466;2022-07-18T14:45:36;12.35;;;4.68;;
49548;SDS011;35450;44.518;7.466;2022-07-18T14:48:40;9.68;;;4.88;;
49548;SDS011;35450;44.518;7.466;2022-07-18T14:51:44;6.55;;;4.60;;
49548;SDS011;35450;44.518;7.466;2022-07-18T14:54:49;13.30;;;5.50;;
49548;SDS011;35450;44.518;7.466;2022-07-18T14:57:53;7.78;;;4.78;;
49548;SDS011;35450;44.518;7.466;2022-07-18T15:00:57;14.35;;;5.10;;
49548;SDS011;35450;44.518;7.466;2022-07-18T15:04:01;20.50;;;5.00;;
49548;SDS011;35450;44.518;7.466;2022-07-18T15:07:05;11.35;;;5.03;;
49548;SDS011;35450;44.518;7.466;2022-07-18T15:10:09;9.50;;;4.95;;
49548;SDS011;35450;44.518;7.466;2022-07-18T15:13:13;7.88;;;4.35;;
49548;SDS011;35450;44.518;7.466;2022-07-18T15:16:17;7.93;;;4.90;;
49548;SDS011;35450;44.518;7.466;2022-07-18T15:19:21;11.32;;;4.93;;
49548;SDS011;35450;44.518;7.466;2022-07-18T15:22:25;14.45;;;5.25;;
49548;SDS011;35450;44.518;7.466;2022-07-18T15:25:30;10.77;;;5.22;;
49548;SDS011;35450;44.518;7.466;2022-07-18T15:28:34;8.52;;;5.35;;
49548;SDS011;35450;44.518;7.466;2022-07-18T15:31:38;9.43;;;4.78;;
49548;SDS011;35450;44.518;7.466;2022-07-18T15:34:42;11.75;;;5.13;;
49548;SDS011;35450;44.518;7.466;2022-07-18T15:37:46;12.38;;;4.22;;
49548;SDS011;35450;44.518;7.466;2022-07-18T15:40:51;11.40;;;4.72;;
49548;SDS011;35450;44.518;7.466;2022-07-18T15:43:55;5.22;;;4.72;;
49548;SDS011;35450;44.518;7.466;2022-07-18T15:46:59;6.65;;;4.70;;
49548;SDS011;35450;44.518;7.466;2022-07-18T15:50:04;7.13;;;5.28;;
49548;SDS011;35450;44.518;7.466;2022-07-18T15:53:08;10.73;;;5.10;;
49548;SDS011;35450;44.518;7.466;2022-07-18T15:56:12;8.35;;;5.22;;
49548;SDS011;35450;44.518;7.466;2022-07-18T15:59:17;13.50;;;5.18;;
49548;SDS011;35450;44.518;7.466;2022-07-18T16:02:20;8.65;;;4.85;;
49548;SDS011;35450;44.518;7.466;2022-07-18T16:05:24;10.20;;;4.68;;
49548;SDS011;35450;44.518;7.466;2022-07-18T16:08:28;8.32;;;4.18;;
49548;SDS011;35450;44.518;7.466;2022-07-18T16:11:32;9.38;;;4.47;;
49548;SDS011;35450;44.518;7.466;2022-07-18T16:14:41;8.73;;;4.82;;
49548;SDS011;35450;44.518;7.466;2022-07-18T16:17:45;9.07;;;4.90;;
49548;SDS011;35450;44.518;7.466;2022-07-18T16:20:49;5.95;;;4.43;;
49548;SDS011;35450;44.518;7.466;2022-07-18T16:23:53;7.25;;;4.57;;
49548;SDS011;35450;44.518;7.466;2022-07-18T16:26:57;11.75;;;5.20;;
49548;SDS011;35450;44.518;7.466;2022-07-18T16:30:02;5.70;;;4.57;;
49548;SDS011;35450;44.518;7.466;2022-07-18T16:33:07;11.63;;;5.45;;
49548;SDS011;35450;44.518;7.466;2022-07-18T16:36:12;9.68;;;5.75;;
49548;SDS011;35450;44.518;7.466;2022-07-18T16:39:16;8.32;;;4.68;;
49548;SDS011;35450;44.518;7.466;2022-07-18T16:42:20;11.18;;;4.70;;
49548;SDS011;35450;44.518;7.466;2022-07-18T16:45:24;9.50;;;4.18;;
49548;SDS011;35450;44.518;7.466;2022-07-18T16:48:28;20.77;;;5.60;;
49548;SDS011;35450;44.518;7.466;2022-07-18T16:51:32;8.48;;;5.47;;
49548;SDS011;35450;44.518;7.466;2022-07-18T16:54:36;12.48;;;5.65;;
49548;SDS011;35450;44.518;7.466;2022-07-18T16:57:40;9.52;;;4.88;;
49548;SDS011;35450;44.518;7.466;2022-07-18T17:00:45;10.23;;;5.07;;
49548;SDS011;35450;44.518;7.466;2022-07-18T17:03:50;8.35;;;4.38;;
49548;SDS011;35450;44.518;7.466;2022-07-18T17:06:54;10.23;;;6.72;;
49548;SDS011;35450;44.518;7.466;2022-07-18T17:09:58;10.52;;;6.20;;
49548;SDS011;35450;44.518;7.466;2022-07-18T17:13:03;17.00;;;5.28;;
49548;SDS011;35450;44.518;7.466;2022-07-18T17:16:08;11.70;;;4.78;;
49548;SDS011;35450;44.518;7.466;2022-07-18T17:19:12;17.60;;;6.28;;
49548;SDS011;35450;44.518;7.466;2022-07-18T17:22:17;6.40;;;5.43;;
49548;SDS011;35450;44.518;7.466;2022-07-18T17:25:25;6.60;;;5.32;;
49548;SDS011;35450;44.518;7.466;2022-07-18T17:28:31;11.88;;;5.57;;
49548;SDS011;35450;44.518;7.466;2022-07-18T17:31:37;15.15;;;5.35;;
49548;SDS011;35450;44.518;7.466;2022-07-18T17:34:41;14.77;;;5.32;;
49548;SDS011;35450;44.518;7.466;2022-07-18T17:37:46;14.77;;;5.80;;
49548;SDS011;35450;44.518;7.466;2022-07-18T17:40:51;6.22;;;4.78;;
49548;SDS011;35450;44.518;7.466;2022-07-18T17:43:55;9.70;;;5.03;;
49548;SDS011;35450;44.518;7.466;2022-07-18T17:46:59;15.55;;;5.22;;
